createdAt,value
2016-11-09T00:00:05.402Z,2.7
2016-11-09T00:05:03.995Z,2.7
2016-11-09T00:10:04.762Z,2.7
2016-11-09T00:15:04.697Z,2.5
2016-11-09T00:20:04.388Z,2.5
2016-11-09T00:25:03.998Z,2.5
2016-11-09T00:30:04.753Z,2.5
2016-11-09T00:35:04.117Z,2.5
2016-11-09T00:40:04.320Z,2.5
2016-11-09T00:45:04.716Z,2.5
2016-11-09T00:50:04.103Z,2.5
2016-11-09T00:55:03.881Z,2.4
2016-11-09T01:00:04.896Z,2.4
2016-11-09T01:05:04.546Z,2.4
2016-11-09T01:10:04.299Z,2.2
2016-11-09T01:15:04.353Z,2.2
2016-11-09T01:20:04.935Z,2.2
2016-11-09T01:25:04.515Z,2.0
2016-11-09T01:30:04.591Z,1.8
2016-11-09T01:35:04.364Z,1.8
2016-11-09T01:40:03.682Z,1.8
2016-11-09T01:45:03.904Z,1.3
2016-11-09T01:50:04.110Z,1.2
2016-11-09T01:55:03.976Z,1.2
2016-11-09T02:00:03.657Z,1.1
2016-11-09T02:05:04.720Z,1.1
2016-11-09T02:10:04.246Z,1.1
2016-11-09T02:15:04.706Z,1.1
2016-11-09T02:20:04.835Z,1.1
2016-11-09T02:25:04.671Z,0.8
2016-11-09T02:30:04.268Z,0.8
2016-11-09T02:35:03.992Z,0.8
2016-11-09T02:40:04.140Z,0.7
2016-11-09T02:45:03.735Z,0.7
2016-11-09T02:50:04.322Z,0.7
2016-11-09T02:55:04.695Z,0.6
2016-11-09T03:00:04.885Z,0.6
2016-11-09T03:05:08.939Z,0.6
2016-11-09T03:10:04.356Z,0.4
2016-11-09T03:15:04.408Z,0.3
2016-11-09T03:20:04.820Z,0.4
2016-11-09T03:25:04.219Z,0.3
2016-11-09T03:30:04.056Z,0.4
2016-11-09T03:35:03.897Z,0.4
2016-11-09T03:40:04.390Z,0.3
2016-11-09T03:45:04.535Z,0.3
2016-11-09T03:50:04.664Z,0.3
2016-11-09T03:55:04.586Z,0.3
2016-11-09T04:00:04.369Z,0.3
2016-11-09T04:05:04.497Z,0.3
2016-11-09T04:10:04.361Z,0.3
2016-11-09T04:15:04.882Z,0.1
2016-11-09T04:20:04.511Z,0.3
2016-11-09T04:25:03.825Z,0.3
2016-11-09T04:30:04.152Z,0.3
2016-11-09T04:35:04.508Z,0.4
2016-11-09T04:40:04.587Z,0.4
2016-11-09T04:45:03.733Z,0.3
2016-11-09T04:50:04.716Z,0.1
2016-11-09T04:55:03.929Z,0.1
2016-11-09T05:00:03.729Z,0.3
2016-11-09T05:05:03.859Z,0.6
2016-11-09T05:10:04.499Z,0.7
2016-11-09T05:15:04.274Z,0.7
2016-11-09T05:20:04.477Z,0.8
2016-11-09T05:25:04.441Z,0.8
2016-11-09T05:30:03.838Z,0.7
2016-11-09T05:35:04.433Z,0.6
2016-11-09T05:40:04.195Z,0.6
2016-11-09T05:45:04.618Z,0.4
2016-11-09T05:50:04.869Z,0.4
2016-11-09T05:55:04.418Z,0.4
2016-11-09T06:00:04.652Z,0.4
2016-11-09T06:05:04.477Z,0.4
2016-11-09T06:10:03.873Z,0.4
2016-11-09T06:15:03.884Z,0.6
2016-11-09T06:20:04.712Z,0.6
2016-11-09T06:25:04.431Z,0.7
2016-11-09T06:30:04.496Z,0.8
2016-11-09T06:35:04.658Z,1.1
2016-11-09T06:40:04.207Z,1.2
2016-11-09T06:45:04.624Z,1.2
2016-11-09T06:50:04.608Z,1.2
2016-11-09T06:55:03.823Z,1.3
2016-11-09T07:00:04.765Z,1.6
2016-11-09T07:05:04.057Z,1.6
2016-11-09T07:10:04.170Z,1.6
2016-11-09T07:15:04.671Z,1.7
2016-11-09T07:20:03.843Z,1.8
2016-11-09T07:25:04.628Z,1.8
2016-11-09T07:30:04.425Z,1.8
2016-11-09T07:35:04.437Z,2.0
2016-11-09T07:40:03.954Z,2.2
2016-11-09T07:45:04.665Z,2.4
2016-11-09T07:50:04.223Z,2.4
2016-11-09T07:55:04.514Z,2.4
2016-11-09T08:00:03.836Z,2.4
2016-11-09T08:05:03.755Z,2.5
2016-11-09T08:10:04.464Z,2.5
2016-11-09T08:15:04.412Z,2.5
2016-11-09T08:20:03.943Z,2.9
2016-11-09T08:25:04.468Z,2.7
2016-11-09T08:30:03.908Z,2.9
2016-11-09T08:35:04.115Z,2.9
2016-11-09T08:40:03.810Z,3.0
2016-11-09T08:45:04.190Z,2.9
2016-11-09T08:50:04.129Z,2.9
2016-11-09T08:55:04.358Z,3.0
2016-11-09T09:00:03.770Z,3.0
2016-11-09T09:05:04.423Z,3.2
2016-11-09T09:10:04.304Z,3.2
2016-11-09T09:15:03.838Z,3.2
2016-11-09T09:20:04.246Z,3.2
2016-11-09T09:25:04.150Z,3.5
2016-11-09T09:30:04.289Z,3.5
2016-11-09T09:35:04.459Z,3.7
2016-11-09T09:40:04.225Z,3.7
2016-11-09T09:45:04.389Z,3.7
2016-11-09T09:50:04.500Z,3.7
2016-11-09T09:55:04.639Z,3.7
2016-11-09T10:00:04.701Z,4.0
2016-11-09T10:05:04.424Z,4.0
2016-11-09T10:10:03.799Z,4.0
2016-11-09T10:15:04.315Z,4.0
2016-11-09T10:20:04.215Z,4.0
2016-11-09T10:25:04.050Z,4.0
2016-11-09T10:30:04.179Z,4.0
2016-11-09T10:35:04.375Z,4.0
2016-11-09T10:40:04.615Z,4.0
2016-11-09T10:45:04.283Z,4.0
2016-11-09T10:50:04.630Z,4.0
2016-11-09T10:55:04.142Z,4.0
2016-11-09T11:00:04.010Z,4.0
2016-11-09T11:05:04.016Z,4.0
2016-11-09T11:10:04.817Z,4.0
2016-11-09T11:15:04.307Z,4.0
2016-11-09T11:20:04.729Z,3.7
2016-11-09T11:25:03.889Z,3.7
2016-11-09T11:30:04.216Z,4.0
2016-11-09T11:35:04.246Z,4.0
2016-11-09T11:40:04.267Z,4.3
2016-11-09T11:45:04.144Z,4.0
2016-11-09T11:50:04.296Z,4.0
2016-11-09T11:55:04.143Z,4.0
2016-11-09T12:00:04.158Z,4.3
2016-11-09T12:05:04.256Z,4.3
2016-11-09T12:10:04.268Z,4.3
2016-11-09T12:15:04.591Z,4.3
2016-11-09T12:20:03.930Z,4.0
2016-11-09T12:25:03.771Z,4.3
2016-11-09T12:30:04.232Z,4.3
2016-11-09T12:35:04.574Z,4.0
2016-11-09T12:40:04.044Z,4.3
2016-11-09T12:45:04.161Z,4.3
2016-11-09T12:50:04.821Z,4.5
2016-11-09T12:55:04.288Z,4.3
2016-11-09T13:00:03.798Z,4.5
2016-11-09T13:05:04.653Z,4.5
2016-11-09T13:10:03.984Z,4.3
2016-11-09T13:15:04.137Z,4.0
2016-11-09T13:20:04.679Z,4.3
2016-11-09T13:25:04.001Z,4.3
2016-11-09T13:30:04.200Z,4.3
2016-11-09T13:35:04.150Z,4.0
2016-11-09T13:40:03.860Z,4.3
2016-11-09T13:45:04.498Z,4.3
2016-11-09T13:50:04.568Z,4.0
2016-11-09T13:55:03.775Z,4.0
2016-11-09T14:00:04.274Z,4.0
2016-11-09T14:05:03.956Z,4.0
2016-11-09T14:10:04.754Z,4.0
2016-11-09T14:15:04.053Z,4.0
2016-11-09T14:20:04.039Z,4.0
2016-11-09T14:25:04.318Z,4.0
2016-11-09T14:30:04.650Z,4.0
2016-11-09T14:35:04.537Z,4.0
2016-11-09T14:40:03.851Z,4.0
2016-11-09T14:45:04.468Z,4.0
2016-11-09T14:50:04.025Z,4.0
2016-11-09T14:55:04.178Z,4.0
2016-11-09T15:00:04.846Z,4.0
2016-11-09T15:05:04.175Z,4.0
2016-11-09T15:10:04.188Z,4.0
2016-11-09T15:15:04.350Z,4.0
2016-11-09T15:20:04.841Z,4.0
2016-11-09T15:25:04.287Z,3.7
2016-11-09T15:30:03.886Z,4.0
2016-11-09T15:35:04.817Z,4.0
2016-11-09T15:40:04.527Z,4.0
2016-11-09T15:45:03.907Z,4.0
2016-11-09T15:50:04.420Z,4.0
2016-11-09T15:55:04.255Z,4.0
2016-11-09T16:00:04.352Z,4.0
2016-11-09T16:05:04.547Z,4.0
2016-11-09T16:10:04.307Z,3.7
2016-11-09T16:15:03.918Z,3.7
2016-11-09T16:20:04.562Z,3.7
2016-11-09T16:25:04.258Z,3.7
2016-11-09T16:30:04.228Z,3.7
2016-11-09T16:35:04.138Z,4.0
2016-11-09T16:40:04.356Z,3.7
2016-11-09T16:45:04.427Z,4.0
2016-11-09T16:50:04.130Z,4.0
2016-11-09T16:55:04.077Z,4.0
2016-11-09T17:00:04.280Z,3.7
2016-11-09T17:05:04.468Z,3.7
2016-11-09T17:10:04.340Z,3.7
2016-11-09T17:15:04.557Z,3.7
2016-11-09T17:20:04.178Z,3.7
2016-11-09T17:25:04.664Z,3.7
2016-11-09T17:30:04.086Z,3.7
2016-11-09T17:35:04.059Z,3.7
2016-11-09T17:40:03.751Z,3.7
2016-11-09T17:45:04.410Z,3.7
2016-11-09T17:50:04.525Z,3.7
2016-11-09T17:55:04.068Z,3.7
2016-11-09T18:00:04.624Z,3.7
2016-11-09T18:05:04.434Z,3.7
2016-11-09T18:10:04.418Z,3.7
2016-11-09T18:15:04.309Z,3.7
2016-11-09T18:20:04.037Z,3.7
2016-11-09T18:25:04.268Z,3.7
2016-11-09T18:30:04.259Z,3.7
2016-11-09T18:35:04.446Z,3.7
2016-11-09T18:40:03.797Z,3.5
2016-11-09T18:45:03.998Z,3.7
2016-11-09T18:50:04.764Z,3.5
2016-11-09T18:55:04.111Z,3.5
2016-11-09T19:00:04.292Z,3.5
2016-11-09T19:05:04.105Z,3.2
2016-11-09T19:10:03.866Z,3.5
2016-11-09T19:15:03.840Z,3.5
2016-11-09T19:20:04.148Z,3.5
2016-11-09T19:25:04.116Z,3.5
2016-11-09T19:30:04.905Z,3.5
2016-11-09T19:35:04.374Z,3.5
2016-11-09T19:40:04.471Z,3.5
2016-11-09T19:45:04.085Z,3.5
2016-11-09T19:50:04.492Z,3.5
2016-11-09T19:55:04.082Z,3.2
2016-11-09T20:00:04.098Z,3.2
2016-11-09T20:10:06.219Z,3.2
2016-11-09T20:15:04.159Z,3.2
2016-11-09T20:20:04.017Z,3.2
2016-11-09T20:30:05.809Z,3.0
2016-11-09T20:35:04.458Z,2.9
2016-11-09T20:40:04.844Z,3.0
2016-11-09T20:45:04.767Z,2.9
2016-11-09T20:50:03.797Z,2.9
2016-11-09T20:55:03.796Z,2.9
2016-11-09T21:00:03.970Z,3.0
2016-11-09T21:05:04.105Z,3.0
2016-11-09T21:10:03.996Z,3.0
2016-11-09T21:15:04.679Z,3.0
2016-11-09T21:20:04.884Z,3.2
2016-11-09T21:25:04.713Z,3.2
2016-11-09T21:30:04.620Z,3.2
2016-11-09T21:35:04.025Z,3.2
2016-11-09T21:40:04.658Z,3.5
2016-11-09T21:45:03.858Z,3.2
2016-11-09T21:50:04.156Z,3.2
2016-11-09T21:55:04.284Z,3.2
2016-11-09T22:00:04.658Z,3.5
2016-11-09T22:05:03.825Z,3.7
2016-11-09T22:10:04.006Z,3.2
2016-11-09T22:15:04.163Z,3.2
2016-11-09T22:20:03.996Z,3.5
2016-11-09T22:25:04.566Z,3.2
2016-11-09T22:30:03.901Z,3.2
2016-11-09T22:35:04.015Z,3.2
2016-11-09T22:40:04.523Z,3.2
2016-11-09T22:45:04.097Z,3.2
2016-11-09T22:50:04.563Z,3.2
2016-11-09T22:55:04.256Z,3.5
2016-11-09T23:00:04.156Z,3.5
2016-11-09T23:05:04.456Z,3.7
2016-11-09T23:10:04.639Z,3.2
2016-11-09T23:15:04.243Z,3.2
2016-11-09T23:20:04.239Z,3.2
2016-11-09T23:25:04.255Z,3.2
2016-11-09T23:30:04.132Z,3.2
2016-11-09T23:35:03.845Z,3.2
2016-11-09T23:40:04.161Z,3.5
2016-11-09T23:45:04.757Z,3.7
2016-11-09T23:50:03.952Z,3.5
2016-11-09T23:55:04.561Z,3.2
